<?xml version="1.0" encoding="UTF-8" standalone="no" ?>
<gpx xmlns="http://www.topografix.com/GPX/1/1" xmlns:xsi="http://www.w3.org/2001/XMLSchema-instance" xsi:schemaLocation="http://www.topografix.com/GPX/1/1 http://www.topografix.com/GPX/1/1/gpx.xsd" version="1.1" creator="VisuGPX - https://www.visugpx.com">
  <metadata>
    <name>Circuit du 03-09-2012</name>
    <desc><![CDATA[Circuit du 03-09-2012]]></desc>
  </metadata>
  <wpt lat="45.38374" lon="3.75154">
    <ele>664.40002441406</ele>
    <name><![CDATA[Start]]></name>
  </wpt>
  <wpt lat="45.38375" lon="3.75136">
    <ele>669.5</ele>
    <name><![CDATA[End]]></name>
  </wpt>
  <trk>
    <name><![CDATA[Circuit du 03-09-2012_1]]></name>
    <trkseg>
      <trkpt lat="45.38374" lon="3.75154">
        <ele>664.40002441406</ele>
        <time>2012-09-03T16:34:52Z</time>
      </trkpt>
      <trkpt lat="45.38375" lon="3.75139">
        <ele>664.20001220703</ele>
        <time>2012-09-03T16:35:00Z</time>
      </trkpt>
      <trkpt lat="45.38379" lon="3.75137">
        <ele>663.29998779297</ele>
        <time>2012-09-03T16:35:03Z</time>
      </trkpt>
      <trkpt lat="45.38382" lon="3.75142">
        <ele>662.70001220703</ele>
        <time>2012-09-03T16:35:06Z</time>
      </trkpt>
      <trkpt lat="45.38384" lon="3.75148">
        <ele>661.59997558594</ele>
        <time>2012-09-03T16:35:09Z</time>
      </trkpt>
      <trkpt lat="45.38387" lon="3.75155">
        <ele>660.79998779297</ele>
        <time>2012-09-03T16:35:12Z</time>
      </trkpt>
      <trkpt lat="45.38389" lon="3.75164">
        <ele>658.70001220703</ele>
        <time>2012-09-03T16:35:15Z</time>
      </trkpt>
      <trkpt lat="45.3839" lon="3.75172">
        <ele>659.29998779297</ele>
        <time>2012-09-03T16:35:18Z</time>
      </trkpt>
      <trkpt lat="45.38392" lon="3.75179">
        <ele>657.59997558594</ele>
        <time>2012-09-03T16:35:21Z</time>
      </trkpt>
      <trkpt lat="45.38399" lon="3.75195">
        <ele>657.59997558594</ele>
        <time>2012-09-03T16:35:27Z</time>
      </trkpt>
      <trkpt lat="45.38402" lon="3.75199">
        <ele>657.79998779297</ele>
        <time>2012-09-03T16:35:31Z</time>
      </trkpt>
      <trkpt lat="45.38403" lon="3.75206">
        <ele>658.70001220703</ele>
        <time>2012-09-03T16:35:32Z</time>
      </trkpt>
      <trkpt lat="45.38404" lon="3.75214">
        <ele>658.20001220703</ele>
        <time>2012-09-03T16:35:36Z</time>
      </trkpt>
      <trkpt lat="45.38405" lon="3.75222">
        <ele>658.59997558594</ele>
        <time>2012-09-03T16:35:38Z</time>
      </trkpt>
      <trkpt lat="45.38407" lon="3.7523">
        <ele>655.90002441406</ele>
        <time>2012-09-03T16:35:41Z</time>
      </trkpt>
      <trkpt lat="45.38409" lon="3.7525">
        <ele>655.29998779297</ele>
        <time>2012-09-03T16:35:48Z</time>
      </trkpt>
      <trkpt lat="45.38411" lon="3.75255">
        <ele>656.90002441406</ele>
        <time>2012-09-03T16:35:50Z</time>
      </trkpt>
      <trkpt lat="45.38415" lon="3.75262">
        <ele>657.40002441406</ele>
        <time>2012-09-03T16:35:53Z</time>
      </trkpt>
      <trkpt lat="45.38417" lon="3.75269">
        <ele>658.59997558594</ele>
        <time>2012-09-03T16:35:55Z</time>
      </trkpt>
      <trkpt lat="45.38422" lon="3.75272">
        <ele>657.70001220703</ele>
        <time>2012-09-03T16:36:02Z</time>
      </trkpt>
      <trkpt lat="45.38426" lon="3.75278">
        <ele>657.90002441406</ele>
        <time>2012-09-03T16:36:08Z</time>
      </trkpt>
      <trkpt lat="45.38424" lon="3.75285">
        <ele>658.90002441406</ele>
        <time>2012-09-03T16:36:10Z</time>
      </trkpt>
      <trkpt lat="45.38423" lon="3.75294">
        <ele>658.5</ele>
        <time>2012-09-03T16:36:16Z</time>
      </trkpt>
      <trkpt lat="45.38428" lon="3.75298">
        <ele>656.09997558594</ele>
        <time>2012-09-03T16:36:21Z</time>
      </trkpt>
      <trkpt lat="45.3843" lon="3.75305">
        <ele>655.90002441406</ele>
        <time>2012-09-03T16:36:25Z</time>
      </trkpt>
      <trkpt lat="45.38432" lon="3.75311">
        <ele>656</ele>
        <time>2012-09-03T16:36:29Z</time>
      </trkpt>
      <trkpt lat="45.38435" lon="3.75317">
        <ele>655.90002441406</ele>
        <time>2012-09-03T16:36:35Z</time>
      </trkpt>
      <trkpt lat="45.38438" lon="3.75324">
        <ele>656.29998779297</ele>
        <time>2012-09-03T16:36:40Z</time>
      </trkpt>
      <trkpt lat="45.38439" lon="3.75331">
        <ele>657.40002441406</ele>
        <time>2012-09-03T16:36:43Z</time>
      </trkpt>
      <trkpt lat="45.38442" lon="3.75339">
        <ele>657.5</ele>
        <time>2012-09-03T16:36:49Z</time>
      </trkpt>
      <trkpt lat="45.38443" lon="3.75346">
        <ele>656.70001220703</ele>
        <time>2012-09-03T16:36:54Z</time>
      </trkpt>
      <trkpt lat="45.38442" lon="3.75353">
        <ele>655.79998779297</ele>
        <time>2012-09-03T16:36:56Z</time>
      </trkpt>
      <trkpt lat="45.38444" lon="3.75359">
        <ele>656.09997558594</ele>
        <time>2012-09-03T16:37:00Z</time>
      </trkpt>
      <trkpt lat="45.38447" lon="3.75365">
        <ele>656.59997558594</ele>
        <time>2012-09-03T16:37:05Z</time>
      </trkpt>
      <trkpt lat="45.38449" lon="3.75372">
        <ele>656.79998779297</ele>
        <time>2012-09-03T16:37:12Z</time>
      </trkpt>
      <trkpt lat="45.38451" lon="3.75378">
        <ele>656.59997558594</ele>
        <time>2012-09-03T16:37:15Z</time>
      </trkpt>
      <trkpt lat="45.38452" lon="3.75385">
        <ele>656.5</ele>
        <time>2012-09-03T16:37:21Z</time>
      </trkpt>
      <trkpt lat="45.38457" lon="3.75393">
        <ele>658</ele>
        <time>2012-09-03T16:37:30Z</time>
      </trkpt>
      <trkpt lat="45.38461" lon="3.75404">
        <ele>658</ele>
        <time>2012-09-03T16:37:38Z</time>
      </trkpt>
      <trkpt lat="45.38463" lon="3.7541">
        <ele>660.90002441406</ele>
        <time>2012-09-03T16:37:42Z</time>
      </trkpt>
      <trkpt lat="45.38463" lon="3.75417">
        <ele>659.79998779297</ele>
        <time>2012-09-03T16:37:45Z</time>
      </trkpt>
      <trkpt lat="45.38464" lon="3.75424">
        <ele>658.90002441406</ele>
        <time>2012-09-03T16:37:51Z</time>
      </trkpt>
      <trkpt lat="45.38465" lon="3.75431">
        <ele>655.90002441406</ele>
        <time>2012-09-03T16:37:56Z</time>
      </trkpt>
      <trkpt lat="45.38468" lon="3.75437">
        <ele>655.40002441406</ele>
        <time>2012-09-03T16:37:58Z</time>
      </trkpt>
      <trkpt lat="45.38469" lon="3.75444">
        <ele>656.20001220703</ele>
        <time>2012-09-03T16:38:03Z</time>
      </trkpt>
      <trkpt lat="45.38469" lon="3.75454">
        <ele>655</ele>
        <time>2012-09-03T16:38:08Z</time>
      </trkpt>
      <trkpt lat="45.38471" lon="3.75461">
        <ele>654.90002441406</ele>
        <time>2012-09-03T16:38:14Z</time>
      </trkpt>
      <trkpt lat="45.38475" lon="3.75466">
        <ele>655.09997558594</ele>
        <time>2012-09-03T16:38:20Z</time>
      </trkpt>
      <trkpt lat="45.38478" lon="3.75471">
        <ele>656.40002441406</ele>
        <time>2012-09-03T16:38:25Z</time>
      </trkpt>
      <trkpt lat="45.38478" lon="3.7548">
        <ele>657.5</ele>
        <time>2012-09-03T16:38:32Z</time>
      </trkpt>
      <trkpt lat="45.38483" lon="3.75481">
        <ele>658.20001220703</ele>
        <time>2012-09-03T16:38:36Z</time>
      </trkpt>
      <trkpt lat="45.38486" lon="3.75486">
        <ele>658.20001220703</ele>
        <time>2012-09-03T16:38:40Z</time>
      </trkpt>
      <trkpt lat="45.38491" lon="3.755">
        <ele>655.5</ele>
        <time>2012-09-03T16:38:48Z</time>
      </trkpt>
      <trkpt lat="45.38491" lon="3.75507">
        <ele>654.70001220703</ele>
        <time>2012-09-03T16:38:52Z</time>
      </trkpt>
      <trkpt lat="45.38494" lon="3.75514">
        <ele>654.09997558594</ele>
        <time>2012-09-03T16:38:54Z</time>
      </trkpt>
      <trkpt lat="45.38495" lon="3.75522">
        <ele>654.70001220703</ele>
        <time>2012-09-03T16:38:57Z</time>
      </trkpt>
      <trkpt lat="45.38499" lon="3.75546">
        <ele>654.40002441406</ele>
        <time>2012-09-03T16:39:05Z</time>
      </trkpt>
      <trkpt lat="45.385" lon="3.75553">
        <ele>653.79998779297</ele>
        <time>2012-09-03T16:39:12Z</time>
      </trkpt>
      <trkpt lat="45.38501" lon="3.75561">
        <ele>655.59997558594</ele>
        <time>2012-09-03T16:39:15Z</time>
      </trkpt>
      <trkpt lat="45.38502" lon="3.75571">
        <ele>656.40002441406</ele>
        <time>2012-09-03T16:39:17Z</time>
      </trkpt>
      <trkpt lat="45.38503" lon="3.75577">
        <ele>655.90002441406</ele>
        <time>2012-09-03T16:39:19Z</time>
      </trkpt>
      <trkpt lat="45.38505" lon="3.7559">
        <ele>653.20001220703</ele>
        <time>2012-09-03T16:39:24Z</time>
      </trkpt>
      <trkpt lat="45.38504" lon="3.75599">
        <ele>651.20001220703</ele>
        <time>2012-09-03T16:39:27Z</time>
      </trkpt>
      <trkpt lat="45.38503" lon="3.75606">
        <ele>650.59997558594</ele>
        <time>2012-09-03T16:39:30Z</time>
      </trkpt>
      <trkpt lat="45.38502" lon="3.75614">
        <ele>650.79998779297</ele>
        <time>2012-09-03T16:39:33Z</time>
      </trkpt>
      <trkpt lat="45.38504" lon="3.75625">
        <ele>653.29998779297</ele>
        <time>2012-09-03T16:39:36Z</time>
      </trkpt>
      <trkpt lat="45.38506" lon="3.75631">
        <ele>654.5</ele>
        <time>2012-09-03T16:39:38Z</time>
      </trkpt>
      <trkpt lat="45.3851" lon="3.75637">
        <ele>654.90002441406</ele>
        <time>2012-09-03T16:39:41Z</time>
      </trkpt>
      <trkpt lat="45.38515" lon="3.75646">
        <ele>655.79998779297</ele>
        <time>2012-09-03T16:39:44Z</time>
      </trkpt>
      <trkpt lat="45.38514" lon="3.75655">
        <ele>654.5</ele>
        <time>2012-09-03T16:39:48Z</time>
      </trkpt>
      <trkpt lat="45.38516" lon="3.75664">
        <ele>657.40002441406</ele>
        <time>2012-09-03T16:39:52Z</time>
      </trkpt>
      <trkpt lat="45.38522" lon="3.75666">
        <ele>656</ele>
        <time>2012-09-03T16:39:59Z</time>
      </trkpt>
      <trkpt lat="45.38536" lon="3.75665">
        <ele>653.5</ele>
        <time>2012-09-03T16:40:07Z</time>
      </trkpt>
      <trkpt lat="45.38542" lon="3.75665">
        <ele>649.79998779297</ele>
        <time>2012-09-03T16:40:16Z</time>
      </trkpt>
      <trkpt lat="45.38548" lon="3.75664">
        <ele>649.5</ele>
        <time>2012-09-03T16:40:20Z</time>
      </trkpt>
      <trkpt lat="45.38553" lon="3.75663">
        <ele>653.5</ele>
        <time>2012-09-03T16:40:26Z</time>
      </trkpt>
      <trkpt lat="45.38558" lon="3.75664">
        <ele>657.40002441406</ele>
        <time>2012-09-03T16:40:27Z</time>
      </trkpt>
      <trkpt lat="45.38563" lon="3.75667">
        <ele>660.59997558594</ele>
        <time>2012-09-03T16:40:38Z</time>
      </trkpt>
      <trkpt lat="45.38567" lon="3.75669">
        <ele>661.70001220703</ele>
        <time>2012-09-03T16:40:40Z</time>
      </trkpt>
      <trkpt lat="45.38572" lon="3.75672">
        <ele>661.40002441406</ele>
        <time>2012-09-03T16:40:46Z</time>
      </trkpt>
      <trkpt lat="45.38577" lon="3.75674">
        <ele>660.20001220703</ele>
        <time>2012-09-03T16:40:50Z</time>
      </trkpt>
      <trkpt lat="45.38581" lon="3.75676">
        <ele>660.59997558594</ele>
        <time>2012-09-03T16:40:53Z</time>
      </trkpt>
      <trkpt lat="45.38582" lon="3.75683">
        <ele>658.20001220703</ele>
        <time>2012-09-03T16:40:57Z</time>
      </trkpt>
      <trkpt lat="45.38586" lon="3.75689">
        <ele>659.5</ele>
        <time>2012-09-03T16:41:05Z</time>
      </trkpt>
      <trkpt lat="45.38592" lon="3.75691">
        <ele>662.09997558594</ele>
        <time>2012-09-03T16:41:13Z</time>
      </trkpt>
      <trkpt lat="45.38597" lon="3.75696">
        <ele>661.90002441406</ele>
        <time>2012-09-03T16:41:17Z</time>
      </trkpt>
      <trkpt lat="45.38603" lon="3.757">
        <ele>660</ele>
        <time>2012-09-03T16:41:25Z</time>
      </trkpt>
      <trkpt lat="45.38611" lon="3.75703">
        <ele>661.29998779297</ele>
        <time>2012-09-03T16:41:37Z</time>
      </trkpt>
      <trkpt lat="45.38616" lon="3.75707">
        <ele>661.79998779297</ele>
        <time>2012-09-03T16:41:40Z</time>
      </trkpt>
      <trkpt lat="45.3862" lon="3.75711">
        <ele>662.90002441406</ele>
        <time>2012-09-03T16:41:42Z</time>
      </trkpt>
      <trkpt lat="45.38624" lon="3.75717">
        <ele>664.20001220703</ele>
        <time>2012-09-03T16:41:46Z</time>
      </trkpt>
      <trkpt lat="45.38629" lon="3.75724">
        <ele>665.5</ele>
        <time>2012-09-03T16:41:50Z</time>
      </trkpt>
      <trkpt lat="45.38632" lon="3.75729">
        <ele>664.79998779297</ele>
        <time>2012-09-03T16:41:55Z</time>
      </trkpt>
      <trkpt lat="45.38635" lon="3.75734">
        <ele>662.70001220703</ele>
        <time>2012-09-03T16:41:58Z</time>
      </trkpt>
      <trkpt lat="45.38643" lon="3.75745">
        <ele>661</ele>
        <time>2012-09-03T16:42:08Z</time>
      </trkpt>
      <trkpt lat="45.38645" lon="3.75753">
        <ele>659.59997558594</ele>
        <time>2012-09-03T16:42:11Z</time>
      </trkpt>
      <trkpt lat="45.38649" lon="3.75753">
        <ele>659.70001220703</ele>
        <time>2012-09-03T16:42:14Z</time>
      </trkpt>
      <trkpt lat="45.38655" lon="3.75753">
        <ele>661.59997558594</ele>
        <time>2012-09-03T16:42:17Z</time>
      </trkpt>
      <trkpt lat="45.38658" lon="3.75759">
        <ele>661.70001220703</ele>
        <time>2012-09-03T16:42:23Z</time>
      </trkpt>
      <trkpt lat="45.38663" lon="3.75762">
        <ele>662.40002441406</ele>
        <time>2012-09-03T16:42:27Z</time>
      </trkpt>
      <trkpt lat="45.38666" lon="3.75769">
        <ele>662.20001220703</ele>
        <time>2012-09-03T16:42:30Z</time>
      </trkpt>
      <trkpt lat="45.38669" lon="3.75775">
        <ele>660.59997558594</ele>
        <time>2012-09-03T16:42:37Z</time>
      </trkpt>
      <trkpt lat="45.38673" lon="3.75777">
        <ele>661.20001220703</ele>
        <time>2012-09-03T16:42:41Z</time>
      </trkpt>
      <trkpt lat="45.38677" lon="3.75782">
        <ele>660.90002441406</ele>
        <time>2012-09-03T16:42:45Z</time>
      </trkpt>
      <trkpt lat="45.38681" lon="3.75788">
        <ele>661.90002441406</ele>
        <time>2012-09-03T16:42:50Z</time>
      </trkpt>
      <trkpt lat="45.38685" lon="3.75793">
        <ele>661.90002441406</ele>
        <time>2012-09-03T16:42:55Z</time>
      </trkpt>
      <trkpt lat="45.38689" lon="3.75799">
        <ele>661.90002441406</ele>
        <time>2012-09-03T16:42:59Z</time>
      </trkpt>
      <trkpt lat="45.38693" lon="3.75805">
        <ele>664</ele>
        <time>2012-09-03T16:43:02Z</time>
      </trkpt>
      <trkpt lat="45.38696" lon="3.7581">
        <ele>664.70001220703</ele>
        <time>2012-09-03T16:43:03Z</time>
      </trkpt>
      <trkpt lat="45.38701" lon="3.75814">
        <ele>666</ele>
        <time>2012-09-03T16:43:06Z</time>
      </trkpt>
      <trkpt lat="45.38704" lon="3.75822">
        <ele>663.09997558594</ele>
        <time>2012-09-03T16:43:10Z</time>
      </trkpt>
      <trkpt lat="45.38708" lon="3.75826">
        <ele>663.79998779297</ele>
        <time>2012-09-03T16:43:11Z</time>
      </trkpt>
      <trkpt lat="45.38712" lon="3.7583">
        <ele>664.09997558594</ele>
        <time>2012-09-03T16:43:15Z</time>
      </trkpt>
      <trkpt lat="45.38715" lon="3.75835">
        <ele>665.40002441406</ele>
        <time>2012-09-03T16:43:17Z</time>
      </trkpt>
      <trkpt lat="45.38724" lon="3.75846">
        <ele>665.20001220703</ele>
        <time>2012-09-03T16:43:22Z</time>
      </trkpt>
      <trkpt lat="45.3873" lon="3.75852">
        <ele>665.40002441406</ele>
        <time>2012-09-03T16:43:26Z</time>
      </trkpt>
      <trkpt lat="45.38736" lon="3.75855">
        <ele>666.5</ele>
        <time>2012-09-03T16:43:29Z</time>
      </trkpt>
      <trkpt lat="45.38741" lon="3.75862">
        <ele>666.70001220703</ele>
        <time>2012-09-03T16:43:32Z</time>
      </trkpt>
      <trkpt lat="45.38745" lon="3.75867">
        <ele>667.09997558594</ele>
        <time>2012-09-03T16:43:35Z</time>
      </trkpt>
      <trkpt lat="45.38751" lon="3.75871">
        <ele>667.40002441406</ele>
        <time>2012-09-03T16:43:39Z</time>
      </trkpt>
      <trkpt lat="45.38757" lon="3.75877">
        <ele>665.90002441406</ele>
        <time>2012-09-03T16:43:42Z</time>
      </trkpt>
      <trkpt lat="45.3876" lon="3.75882">
        <ele>664.40002441406</ele>
        <time>2012-09-03T16:43:46Z</time>
      </trkpt>
      <trkpt lat="45.38764" lon="3.75886">
        <ele>665.5</ele>
        <time>2012-09-03T16:43:47Z</time>
      </trkpt>
      <trkpt lat="45.38769" lon="3.75889">
        <ele>664.79998779297</ele>
        <time>2012-09-03T16:43:51Z</time>
      </trkpt>
      <trkpt lat="45.38775" lon="3.75893">
        <ele>661.40002441406</ele>
        <time>2012-09-03T16:43:59Z</time>
      </trkpt>
      <trkpt lat="45.38779" lon="3.75897">
        <ele>661.5</ele>
        <time>2012-09-03T16:44:01Z</time>
      </trkpt>
      <trkpt lat="45.38783" lon="3.75901">
        <ele>660.70001220703</ele>
        <time>2012-09-03T16:44:05Z</time>
      </trkpt>
      <trkpt lat="45.38788" lon="3.75903">
        <ele>663.79998779297</ele>
        <time>2012-09-03T16:44:10Z</time>
      </trkpt>
      <trkpt lat="45.38795" lon="3.75901">
        <ele>661.70001220703</ele>
        <time>2012-09-03T16:44:17Z</time>
      </trkpt>
      <trkpt lat="45.38801" lon="3.75903">
        <ele>662.09997558594</ele>
        <time>2012-09-03T16:44:21Z</time>
      </trkpt>
      <trkpt lat="45.38805" lon="3.75907">
        <ele>661.40002441406</ele>
        <time>2012-09-03T16:44:26Z</time>
      </trkpt>
      <trkpt lat="45.38809" lon="3.7591">
        <ele>661.29998779297</ele>
        <time>2012-09-03T16:44:30Z</time>
      </trkpt>
      <trkpt lat="45.38813" lon="3.75915">
        <ele>662.20001220703</ele>
        <time>2012-09-03T16:44:34Z</time>
      </trkpt>
      <trkpt lat="45.38819" lon="3.75913">
        <ele>661.09997558594</ele>
        <time>2012-09-03T16:44:39Z</time>
      </trkpt>
      <trkpt lat="45.38826" lon="3.75915">
        <ele>663.40002441406</ele>
        <time>2012-09-03T16:44:42Z</time>
      </trkpt>
      <trkpt lat="45.3883" lon="3.7591">
        <ele>658.20001220703</ele>
        <time>2012-09-03T16:44:47Z</time>
      </trkpt>
      <trkpt lat="45.38835" lon="3.75908">
        <ele>654</ele>
        <time>2012-09-03T16:44:53Z</time>
      </trkpt>
      <trkpt lat="45.38849" lon="3.75919">
        <ele>652.70001220703</ele>
        <time>2012-09-03T16:45:04Z</time>
      </trkpt>
      <trkpt lat="45.38855" lon="3.75922">
        <ele>654.40002441406</ele>
        <time>2012-09-03T16:45:14Z</time>
      </trkpt>
      <trkpt lat="45.38861" lon="3.75921">
        <ele>657.90002441406</ele>
        <time>2012-09-03T16:45:21Z</time>
      </trkpt>
      <trkpt lat="45.38875" lon="3.75919">
        <ele>659.29998779297</ele>
        <time>2012-09-03T16:45:30Z</time>
      </trkpt>
      <trkpt lat="45.3888" lon="3.75918">
        <ele>662.29998779297</ele>
        <time>2012-09-03T16:45:33Z</time>
      </trkpt>
      <trkpt lat="45.38888" lon="3.75921">
        <ele>661.90002441406</ele>
        <time>2012-09-03T16:45:39Z</time>
      </trkpt>
      <trkpt lat="45.38895" lon="3.75917">
        <ele>661.29998779297</ele>
        <time>2012-09-03T16:45:44Z</time>
      </trkpt>
      <trkpt lat="45.389" lon="3.75916">
        <ele>659.5</ele>
        <time>2012-09-03T16:45:52Z</time>
      </trkpt>
      <trkpt lat="45.38904" lon="3.7592">
        <ele>659.59997558594</ele>
        <time>2012-09-03T16:45:55Z</time>
      </trkpt>
      <trkpt lat="45.38916" lon="3.75917">
        <ele>656.5</ele>
        <time>2012-09-03T16:46:05Z</time>
      </trkpt>
      <trkpt lat="45.38921" lon="3.75915">
        <ele>652.5</ele>
        <time>2012-09-03T16:46:10Z</time>
      </trkpt>
      <trkpt lat="45.38926" lon="3.75914">
        <ele>652.70001220703</ele>
        <time>2012-09-03T16:46:14Z</time>
      </trkpt>
      <trkpt lat="45.3893" lon="3.75914">
        <ele>652.40002441406</ele>
        <time>2012-09-03T16:46:17Z</time>
      </trkpt>
      <trkpt lat="45.38941" lon="3.75915">
        <ele>653.40002441406</ele>
        <time>2012-09-03T16:46:28Z</time>
      </trkpt>
      <trkpt lat="45.38948" lon="3.75916">
        <ele>653</ele>
        <time>2012-09-03T16:46:35Z</time>
      </trkpt>
      <trkpt lat="45.38952" lon="3.75919">
        <ele>652.79998779297</ele>
        <time>2012-09-03T16:46:38Z</time>
      </trkpt>
      <trkpt lat="45.38957" lon="3.75922">
        <ele>654.29998779297</ele>
        <time>2012-09-03T16:46:45Z</time>
      </trkpt>
      <trkpt lat="45.38962" lon="3.75921">
        <ele>652.40002441406</ele>
        <time>2012-09-03T16:46:50Z</time>
      </trkpt>
      <trkpt lat="45.38967" lon="3.7592">
        <ele>653.40002441406</ele>
        <time>2012-09-03T16:46:53Z</time>
      </trkpt>
      <trkpt lat="45.38973" lon="3.75922">
        <ele>652.90002441406</ele>
        <time>2012-09-03T16:46:56Z</time>
      </trkpt>
      <trkpt lat="45.38983" lon="3.75925">
        <ele>652.20001220703</ele>
        <time>2012-09-03T16:47:00Z</time>
      </trkpt>
      <trkpt lat="45.38987" lon="3.75927">
        <ele>649.79998779297</ele>
        <time>2012-09-03T16:47:03Z</time>
      </trkpt>
      <trkpt lat="45.38992" lon="3.75929">
        <ele>650.09997558594</ele>
        <time>2012-09-03T16:47:05Z</time>
      </trkpt>
      <trkpt lat="45.38998" lon="3.75933">
        <ele>651</ele>
        <time>2012-09-03T16:47:09Z</time>
      </trkpt>
      <trkpt lat="45.39003" lon="3.75934">
        <ele>651</ele>
        <time>2012-09-03T16:47:10Z</time>
      </trkpt>
      <trkpt lat="45.39008" lon="3.75938">
        <ele>648.5</ele>
        <time>2012-09-03T16:47:13Z</time>
      </trkpt>
      <trkpt lat="45.39015" lon="3.75943">
        <ele>652.09997558594</ele>
        <time>2012-09-03T16:47:17Z</time>
      </trkpt>
      <trkpt lat="45.3902" lon="3.75943">
        <ele>652.90002441406</ele>
        <time>2012-09-03T16:47:18Z</time>
      </trkpt>
      <trkpt lat="45.39026" lon="3.75943">
        <ele>653.70001220703</ele>
        <time>2012-09-03T16:47:20Z</time>
      </trkpt>
      <trkpt lat="45.39031" lon="3.75943">
        <ele>650.5</ele>
        <time>2012-09-03T16:47:23Z</time>
      </trkpt>
      <trkpt lat="45.39036" lon="3.75945">
        <ele>650</ele>
        <time>2012-09-03T16:47:26Z</time>
      </trkpt>
      <trkpt lat="45.3904" lon="3.75949">
        <ele>650</ele>
        <time>2012-09-03T16:47:28Z</time>
      </trkpt>
      <trkpt lat="45.39045" lon="3.7595">
        <ele>651.5</ele>
        <time>2012-09-03T16:47:29Z</time>
      </trkpt>
      <trkpt lat="45.3905" lon="3.75951">
        <ele>651.70001220703</ele>
        <time>2012-09-03T16:47:31Z</time>
      </trkpt>
      <trkpt lat="45.39055" lon="3.75953">
        <ele>653.79998779297</ele>
        <time>2012-09-03T16:47:34Z</time>
      </trkpt>
      <trkpt lat="45.3906" lon="3.75956">
        <ele>654</ele>
        <time>2012-09-03T16:47:35Z</time>
      </trkpt>
      <trkpt lat="45.39067" lon="3.75958">
        <ele>653.90002441406</ele>
        <time>2012-09-03T16:47:38Z</time>
      </trkpt>
      <trkpt lat="45.39072" lon="3.75961">
        <ele>654.59997558594</ele>
        <time>2012-09-03T16:47:41Z</time>
      </trkpt>
      <trkpt lat="45.39076" lon="3.75965">
        <ele>654.40002441406</ele>
        <time>2012-09-03T16:47:44Z</time>
      </trkpt>
      <trkpt lat="45.39082" lon="3.75967">
        <ele>654.79998779297</ele>
        <time>2012-09-03T16:47:47Z</time>
      </trkpt>
      <trkpt lat="45.39087" lon="3.75968">
        <ele>656.90002441406</ele>
        <time>2012-09-03T16:47:49Z</time>
      </trkpt>
      <trkpt lat="45.39093" lon="3.7597">
        <ele>657.5</ele>
        <time>2012-09-03T16:47:52Z</time>
      </trkpt>
      <trkpt lat="45.39098" lon="3.75976">
        <ele>656.5</ele>
        <time>2012-09-03T16:48:02Z</time>
      </trkpt>
      <trkpt lat="45.39103" lon="3.75975">
        <ele>660.20001220703</ele>
        <time>2012-09-03T16:48:07Z</time>
      </trkpt>
      <trkpt lat="45.39108" lon="3.75975">
        <ele>660.20001220703</ele>
        <time>2012-09-03T16:48:11Z</time>
      </trkpt>
      <trkpt lat="45.39114" lon="3.75978">
        <ele>660</ele>
        <time>2012-09-03T16:48:16Z</time>
      </trkpt>
      <trkpt lat="45.3912" lon="3.75982">
        <ele>658.40002441406</ele>
        <time>2012-09-03T16:48:21Z</time>
      </trkpt>
      <trkpt lat="45.39133" lon="3.75989">
        <ele>659.90002441406</ele>
        <time>2012-09-03T16:48:29Z</time>
      </trkpt>
      <trkpt lat="45.39138" lon="3.75993">
        <ele>658.20001220703</ele>
        <time>2012-09-03T16:48:36Z</time>
      </trkpt>
      <trkpt lat="45.39146" lon="3.75992">
        <ele>655.20001220703</ele>
        <time>2012-09-03T16:48:42Z</time>
      </trkpt>
      <trkpt lat="45.39153" lon="3.75993">
        <ele>656.90002441406</ele>
        <time>2012-09-03T16:48:45Z</time>
      </trkpt>
      <trkpt lat="45.39157" lon="3.75997">
        <ele>655.59997558594</ele>
        <time>2012-09-03T16:48:48Z</time>
      </trkpt>
      <trkpt lat="45.3916" lon="3.76003">
        <ele>654.5</ele>
        <time>2012-09-03T16:48:57Z</time>
      </trkpt>
      <trkpt lat="45.3917" lon="3.76003">
        <ele>656.59997558594</ele>
        <time>2012-09-03T16:49:04Z</time>
      </trkpt>
      <trkpt lat="45.39173" lon="3.75995">
        <ele>653.20001220703</ele>
        <time>2012-09-03T16:49:08Z</time>
      </trkpt>
      <trkpt lat="45.39177" lon="3.76">
        <ele>650.5</ele>
        <time>2012-09-03T16:49:12Z</time>
      </trkpt>
      <trkpt lat="45.3918" lon="3.76005">
        <ele>650.70001220703</ele>
        <time>2012-09-03T16:49:15Z</time>
      </trkpt>
      <trkpt lat="45.39186" lon="3.7601">
        <ele>649.90002441406</ele>
        <time>2012-09-03T16:49:19Z</time>
      </trkpt>
      <trkpt lat="45.3919" lon="3.76013">
        <ele>650.70001220703</ele>
        <time>2012-09-03T16:49:22Z</time>
      </trkpt>
      <trkpt lat="45.39195" lon="3.76008">
        <ele>647.20001220703</ele>
        <time>2012-09-03T16:49:28Z</time>
      </trkpt>
      <trkpt lat="45.392" lon="3.76012">
        <ele>648.59997558594</ele>
        <time>2012-09-03T16:49:32Z</time>
      </trkpt>
      <trkpt lat="45.39202" lon="3.76017">
        <ele>650.29998779297</ele>
        <time>2012-09-03T16:49:36Z</time>
      </trkpt>
      <trkpt lat="45.39206" lon="3.7602">
        <ele>651.59997558594</ele>
        <time>2012-09-03T16:49:38Z</time>
      </trkpt>
      <trkpt lat="45.39216" lon="3.76018">
        <ele>656.59997558594</ele>
        <time>2012-09-03T16:49:44Z</time>
      </trkpt>
      <trkpt lat="45.39227" lon="3.7602">
        <ele>658.79998779297</ele>
        <time>2012-09-03T16:49:49Z</time>
      </trkpt>
      <trkpt lat="45.39233" lon="3.7602">
        <ele>654</ele>
        <time>2012-09-03T16:50:00Z</time>
      </trkpt>
      <trkpt lat="45.39237" lon="3.76022">
        <ele>652.40002441406</ele>
        <time>2012-09-03T16:50:06Z</time>
      </trkpt>
      <trkpt lat="45.3924" lon="3.76027">
        <ele>649.20001220703</ele>
        <time>2012-09-03T16:50:12Z</time>
      </trkpt>
      <trkpt lat="45.39245" lon="3.76031">
        <ele>648.29998779297</ele>
        <time>2012-09-03T16:50:16Z</time>
      </trkpt>
      <trkpt lat="45.39251" lon="3.76033">
        <ele>652.09997558594</ele>
        <time>2012-09-03T16:50:21Z</time>
      </trkpt>
      <trkpt lat="45.39256" lon="3.76033">
        <ele>653.59997558594</ele>
        <time>2012-09-03T16:50:24Z</time>
      </trkpt>
      <trkpt lat="45.39263" lon="3.76035">
        <ele>653.90002441406</ele>
        <time>2012-09-03T16:50:28Z</time>
      </trkpt>
      <trkpt lat="45.3927" lon="3.76034">
        <ele>653.79998779297</ele>
        <time>2012-09-03T16:50:36Z</time>
      </trkpt>
      <trkpt lat="45.39274" lon="3.76037">
        <ele>653.5</ele>
        <time>2012-09-03T16:50:40Z</time>
      </trkpt>
      <trkpt lat="45.39279" lon="3.76037">
        <ele>655.90002441406</ele>
        <time>2012-09-03T16:50:45Z</time>
      </trkpt>
      <trkpt lat="45.39276" lon="3.76033">
        <ele>665</ele>
        <time>2012-09-03T16:50:57Z</time>
      </trkpt>
      <trkpt lat="45.39269" lon="3.76029">
        <ele>664.79998779297</ele>
        <time>2012-09-03T16:51:01Z</time>
      </trkpt>
      <trkpt lat="45.39263" lon="3.76026">
        <ele>664.90002441406</ele>
        <time>2012-09-03T16:51:02Z</time>
      </trkpt>
      <trkpt lat="45.39259" lon="3.76025">
        <ele>662.40002441406</ele>
        <time>2012-09-03T16:51:05Z</time>
      </trkpt>
      <trkpt lat="45.39254" lon="3.76024">
        <ele>660.29998779297</ele>
        <time>2012-09-03T16:51:06Z</time>
      </trkpt>
      <trkpt lat="45.39247" lon="3.76023">
        <ele>660.5</ele>
        <time>2012-09-03T16:51:09Z</time>
      </trkpt>
      <trkpt lat="45.39242" lon="3.76026">
        <ele>659.40002441406</ele>
        <time>2012-09-03T16:51:12Z</time>
      </trkpt>
      <trkpt lat="45.39236" lon="3.76024">
        <ele>660.09997558594</ele>
        <time>2012-09-03T16:51:15Z</time>
      </trkpt>
      <trkpt lat="45.39225" lon="3.7602">
        <ele>660.90002441406</ele>
        <time>2012-09-03T16:51:20Z</time>
      </trkpt>
      <trkpt lat="45.39219" lon="3.76019">
        <ele>662.5</ele>
        <time>2012-09-03T16:51:24Z</time>
      </trkpt>
      <trkpt lat="45.39212" lon="3.76016">
        <ele>662.40002441406</ele>
        <time>2012-09-03T16:51:27Z</time>
      </trkpt>
      <trkpt lat="45.39207" lon="3.76014">
        <ele>663.20001220703</ele>
        <time>2012-09-03T16:51:30Z</time>
      </trkpt>
      <trkpt lat="45.392" lon="3.76014">
        <ele>663.79998779297</ele>
        <time>2012-09-03T16:51:34Z</time>
      </trkpt>
      <trkpt lat="45.39196" lon="3.76012">
        <ele>663</ele>
        <time>2012-09-03T16:51:37Z</time>
      </trkpt>
      <trkpt lat="45.39179" lon="3.76007">
        <ele>659.79998779297</ele>
        <time>2012-09-03T16:51:49Z</time>
      </trkpt>
      <trkpt lat="45.39173" lon="3.76002">
        <ele>661</ele>
        <time>2012-09-03T16:51:51Z</time>
      </trkpt>
      <trkpt lat="45.39161" lon="3.75996">
        <ele>662</ele>
        <time>2012-09-03T16:51:58Z</time>
      </trkpt>
      <trkpt lat="45.39157" lon="3.7599">
        <ele>664.29998779297</ele>
        <time>2012-09-03T16:52:04Z</time>
      </trkpt>
      <trkpt lat="45.39153" lon="3.75987">
        <ele>666.70001220703</ele>
        <time>2012-09-03T16:52:08Z</time>
      </trkpt>
      <trkpt lat="45.39147" lon="3.75988">
        <ele>664.90002441406</ele>
        <time>2012-09-03T16:52:11Z</time>
      </trkpt>
      <trkpt lat="45.39143" lon="3.75985">
        <ele>660</ele>
        <time>2012-09-03T16:52:16Z</time>
      </trkpt>
      <trkpt lat="45.39138" lon="3.75986">
        <ele>660.70001220703</ele>
        <time>2012-09-03T16:52:20Z</time>
      </trkpt>
      <trkpt lat="45.39131" lon="3.75984">
        <ele>658.90002441406</ele>
        <time>2012-09-03T16:52:23Z</time>
      </trkpt>
      <trkpt lat="45.39125" lon="3.75983">
        <ele>658.90002441406</ele>
        <time>2012-09-03T16:52:27Z</time>
      </trkpt>
      <trkpt lat="45.39119" lon="3.75981">
        <ele>652.29998779297</ele>
        <time>2012-09-03T16:52:34Z</time>
      </trkpt>
      <trkpt lat="45.39114" lon="3.75979">
        <ele>653.29998779297</ele>
        <time>2012-09-03T16:52:38Z</time>
      </trkpt>
      <trkpt lat="45.39113" lon="3.75973">
        <ele>653.20001220703</ele>
        <time>2012-09-03T16:52:40Z</time>
      </trkpt>
      <trkpt lat="45.39109" lon="3.75975">
        <ele>653.90002441406</ele>
        <time>2012-09-03T16:52:43Z</time>
      </trkpt>
      <trkpt lat="45.39103" lon="3.75973">
        <ele>655.5</ele>
        <time>2012-09-03T16:52:47Z</time>
      </trkpt>
      <trkpt lat="45.39095" lon="3.7597">
        <ele>656</ele>
        <time>2012-09-03T16:52:50Z</time>
      </trkpt>
      <trkpt lat="45.3909" lon="3.7597">
        <ele>654.09997558594</ele>
        <time>2012-09-03T16:52:55Z</time>
      </trkpt>
      <trkpt lat="45.39086" lon="3.75967">
        <ele>655.40002441406</ele>
        <time>2012-09-03T16:53:03Z</time>
      </trkpt>
      <trkpt lat="45.3908" lon="3.75966">
        <ele>656</ele>
        <time>2012-09-03T16:53:08Z</time>
      </trkpt>
      <trkpt lat="45.39076" lon="3.75966">
        <ele>655</ele>
        <time>2012-09-03T16:53:13Z</time>
      </trkpt>
      <trkpt lat="45.3907" lon="3.75962">
        <ele>655.40002441406</ele>
        <time>2012-09-03T16:53:15Z</time>
      </trkpt>
      <trkpt lat="45.39065" lon="3.75959">
        <ele>653.79998779297</ele>
        <time>2012-09-03T16:53:20Z</time>
      </trkpt>
      <trkpt lat="45.39061" lon="3.75956">
        <ele>654.20001220703</ele>
        <time>2012-09-03T16:53:25Z</time>
      </trkpt>
      <trkpt lat="45.3905" lon="3.75956">
        <ele>654.40002441406</ele>
        <time>2012-09-03T16:53:32Z</time>
      </trkpt>
      <trkpt lat="45.39045" lon="3.75955">
        <ele>653.79998779297</ele>
        <time>2012-09-03T16:53:37Z</time>
      </trkpt>
      <trkpt lat="45.3904" lon="3.75954">
        <ele>654.90002441406</ele>
        <time>2012-09-03T16:53:41Z</time>
      </trkpt>
      <trkpt lat="45.39036" lon="3.7595">
        <ele>657.29998779297</ele>
        <time>2012-09-03T16:53:44Z</time>
      </trkpt>
      <trkpt lat="45.39032" lon="3.75946">
        <ele>659.40002441406</ele>
        <time>2012-09-03T16:53:49Z</time>
      </trkpt>
      <trkpt lat="45.39027" lon="3.75946">
        <ele>661.59997558594</ele>
        <time>2012-09-03T16:53:53Z</time>
      </trkpt>
      <trkpt lat="45.39023" lon="3.75943">
        <ele>660.70001220703</ele>
        <time>2012-09-03T16:53:55Z</time>
      </trkpt>
      <trkpt lat="45.39018" lon="3.75939">
        <ele>660</ele>
        <time>2012-09-03T16:54:00Z</time>
      </trkpt>
      <trkpt lat="45.3901" lon="3.75935">
        <ele>658.79998779297</ele>
        <time>2012-09-03T16:54:08Z</time>
      </trkpt>
      <trkpt lat="45.39002" lon="3.75932">
        <ele>655.90002441406</ele>
        <time>2012-09-03T16:54:16Z</time>
      </trkpt>
      <trkpt lat="45.38996" lon="3.7593">
        <ele>654.79998779297</ele>
        <time>2012-09-03T16:54:20Z</time>
      </trkpt>
      <trkpt lat="45.38992" lon="3.75928">
        <ele>655.90002441406</ele>
        <time>2012-09-03T16:54:26Z</time>
      </trkpt>
      <trkpt lat="45.38986" lon="3.75927">
        <ele>657</ele>
        <time>2012-09-03T16:54:31Z</time>
      </trkpt>
      <trkpt lat="45.38982" lon="3.75922">
        <ele>655.79998779297</ele>
        <time>2012-09-03T16:54:36Z</time>
      </trkpt>
      <trkpt lat="45.38977" lon="3.7592">
        <ele>657.20001220703</ele>
        <time>2012-09-03T16:54:42Z</time>
      </trkpt>
      <trkpt lat="45.38972" lon="3.7592">
        <ele>656.5</ele>
        <time>2012-09-03T16:54:45Z</time>
      </trkpt>
      <trkpt lat="45.38967" lon="3.75918">
        <ele>656.90002441406</ele>
        <time>2012-09-03T16:54:50Z</time>
      </trkpt>
      <trkpt lat="45.38962" lon="3.75916">
        <ele>655.20001220703</ele>
        <time>2012-09-03T16:54:53Z</time>
      </trkpt>
      <trkpt lat="45.38955" lon="3.75912">
        <ele>655.79998779297</ele>
        <time>2012-09-03T16:54:57Z</time>
      </trkpt>
      <trkpt lat="45.3895" lon="3.7591">
        <ele>657.90002441406</ele>
        <time>2012-09-03T16:55:00Z</time>
      </trkpt>
      <trkpt lat="45.38946" lon="3.75907">
        <ele>658.40002441406</ele>
        <time>2012-09-03T16:55:02Z</time>
      </trkpt>
      <trkpt lat="45.38941" lon="3.75908">
        <ele>660.29998779297</ele>
        <time>2012-09-03T16:55:04Z</time>
      </trkpt>
      <trkpt lat="45.38936" lon="3.75905">
        <ele>659.70001220703</ele>
        <time>2012-09-03T16:55:07Z</time>
      </trkpt>
      <trkpt lat="45.38931" lon="3.75906">
        <ele>659</ele>
        <time>2012-09-03T16:55:09Z</time>
      </trkpt>
      <trkpt lat="45.38926" lon="3.75906">
        <ele>656.09997558594</ele>
        <time>2012-09-03T16:55:12Z</time>
      </trkpt>
      <trkpt lat="45.38921" lon="3.75906">
        <ele>657.70001220703</ele>
        <time>2012-09-03T16:55:15Z</time>
      </trkpt>
      <trkpt lat="45.38917" lon="3.75905">
        <ele>657.5</ele>
        <time>2012-09-03T16:55:17Z</time>
      </trkpt>
      <trkpt lat="45.38912" lon="3.75906">
        <ele>655.5</ele>
        <time>2012-09-03T16:55:21Z</time>
      </trkpt>
      <trkpt lat="45.38907" lon="3.75907">
        <ele>656</ele>
        <time>2012-09-03T16:55:22Z</time>
      </trkpt>
      <trkpt lat="45.38902" lon="3.75909">
        <ele>655.70001220703</ele>
        <time>2012-09-03T16:55:25Z</time>
      </trkpt>
      <trkpt lat="45.38896" lon="3.75906">
        <ele>656</ele>
        <time>2012-09-03T16:55:28Z</time>
      </trkpt>
      <trkpt lat="45.38891" lon="3.75907">
        <ele>656.79998779297</ele>
        <time>2012-09-03T16:55:30Z</time>
      </trkpt>
      <trkpt lat="45.38886" lon="3.75908">
        <ele>658.20001220703</ele>
        <time>2012-09-03T16:55:33Z</time>
      </trkpt>
      <trkpt lat="45.38881" lon="3.75909">
        <ele>658.70001220703</ele>
        <time>2012-09-03T16:55:35Z</time>
      </trkpt>
      <trkpt lat="45.38876" lon="3.75911">
        <ele>657.40002441406</ele>
        <time>2012-09-03T16:55:38Z</time>
      </trkpt>
      <trkpt lat="45.38871" lon="3.75909">
        <ele>658.09997558594</ele>
        <time>2012-09-03T16:55:40Z</time>
      </trkpt>
      <trkpt lat="45.38865" lon="3.75907">
        <ele>656.90002441406</ele>
        <time>2012-09-03T16:55:44Z</time>
      </trkpt>
      <trkpt lat="45.3886" lon="3.75906">
        <ele>658.90002441406</ele>
        <time>2012-09-03T16:55:45Z</time>
      </trkpt>
      <trkpt lat="45.38855" lon="3.75906">
        <ele>660</ele>
        <time>2012-09-03T16:55:48Z</time>
      </trkpt>
      <trkpt lat="45.3885" lon="3.75908">
        <ele>660</ele>
        <time>2012-09-03T16:55:51Z</time>
      </trkpt>
      <trkpt lat="45.38844" lon="3.75915">
        <ele>658.5</ele>
        <time>2012-09-03T16:55:56Z</time>
      </trkpt>
      <trkpt lat="45.38839" lon="3.75914">
        <ele>653.5</ele>
        <time>2012-09-03T16:55:59Z</time>
      </trkpt>
      <trkpt lat="45.38835" lon="3.75915">
        <ele>657.29998779297</ele>
        <time>2012-09-03T16:56:04Z</time>
      </trkpt>
      <trkpt lat="45.38829" lon="3.75912">
        <ele>659.20001220703</ele>
        <time>2012-09-03T16:56:12Z</time>
      </trkpt>
      <trkpt lat="45.38823" lon="3.7591">
        <ele>660.59997558594</ele>
        <time>2012-09-03T16:56:14Z</time>
      </trkpt>
      <trkpt lat="45.38817" lon="3.7591">
        <ele>663.5</ele>
        <time>2012-09-03T16:56:18Z</time>
      </trkpt>
      <trkpt lat="45.38811" lon="3.75907">
        <ele>665.29998779297</ele>
        <time>2012-09-03T16:56:26Z</time>
      </trkpt>
      <trkpt lat="45.38806" lon="3.75906">
        <ele>665.5</ele>
        <time>2012-09-03T16:56:28Z</time>
      </trkpt>
      <trkpt lat="45.38802" lon="3.75903">
        <ele>666.70001220703</ele>
        <time>2012-09-03T16:56:33Z</time>
      </trkpt>
      <trkpt lat="45.38797" lon="3.75902">
        <ele>667.70001220703</ele>
        <time>2012-09-03T16:56:37Z</time>
      </trkpt>
      <trkpt lat="45.38791" lon="3.759">
        <ele>668.40002441406</ele>
        <time>2012-09-03T16:56:42Z</time>
      </trkpt>
      <trkpt lat="45.38787" lon="3.75898">
        <ele>669</ele>
        <time>2012-09-03T16:56:47Z</time>
      </trkpt>
      <trkpt lat="45.38777" lon="3.75897">
        <ele>665.59997558594</ele>
        <time>2012-09-03T16:56:57Z</time>
      </trkpt>
      <trkpt lat="45.38774" lon="3.75891">
        <ele>667.59997558594</ele>
        <time>2012-09-03T16:57:02Z</time>
      </trkpt>
      <trkpt lat="45.3877" lon="3.75887">
        <ele>667.20001220703</ele>
        <time>2012-09-03T16:57:07Z</time>
      </trkpt>
      <trkpt lat="45.38764" lon="3.75886">
        <ele>667.5</ele>
        <time>2012-09-03T16:57:10Z</time>
      </trkpt>
      <trkpt lat="45.3876" lon="3.75883">
        <ele>667.5</ele>
        <time>2012-09-03T16:57:15Z</time>
      </trkpt>
      <trkpt lat="45.38755" lon="3.7588">
        <ele>668.40002441406</ele>
        <time>2012-09-03T16:57:21Z</time>
      </trkpt>
      <trkpt lat="45.38751" lon="3.75875">
        <ele>668.59997558594</ele>
        <time>2012-09-03T16:57:26Z</time>
      </trkpt>
      <trkpt lat="45.38749" lon="3.75869">
        <ele>667.40002441406</ele>
        <time>2012-09-03T16:57:28Z</time>
      </trkpt>
      <trkpt lat="45.38744" lon="3.75865">
        <ele>667.59997558594</ele>
        <time>2012-09-03T16:57:35Z</time>
      </trkpt>
      <trkpt lat="45.38738" lon="3.75859">
        <ele>665.70001220703</ele>
        <time>2012-09-03T16:57:42Z</time>
      </trkpt>
      <trkpt lat="45.38735" lon="3.75855">
        <ele>667.59997558594</ele>
        <time>2012-09-03T16:57:45Z</time>
      </trkpt>
      <trkpt lat="45.38731" lon="3.7585">
        <ele>665.90002441406</ele>
        <time>2012-09-03T16:57:50Z</time>
      </trkpt>
      <trkpt lat="45.38726" lon="3.75845">
        <ele>668.09997558594</ele>
        <time>2012-09-03T16:57:56Z</time>
      </trkpt>
      <trkpt lat="45.38721" lon="3.75836">
        <ele>668.79998779297</ele>
        <time>2012-09-03T16:58:02Z</time>
      </trkpt>
      <trkpt lat="45.38718" lon="3.7583">
        <ele>670.09997558594</ele>
        <time>2012-09-03T16:58:05Z</time>
      </trkpt>
      <trkpt lat="45.38711" lon="3.75821">
        <ele>668.5</ele>
        <time>2012-09-03T16:58:12Z</time>
      </trkpt>
      <trkpt lat="45.38706" lon="3.75814">
        <ele>670.29998779297</ele>
        <time>2012-09-03T16:58:18Z</time>
      </trkpt>
      <trkpt lat="45.38703" lon="3.7581">
        <ele>670.40002441406</ele>
        <time>2012-09-03T16:58:21Z</time>
      </trkpt>
      <trkpt lat="45.38698" lon="3.75804">
        <ele>669.70001220703</ele>
        <time>2012-09-03T16:58:27Z</time>
      </trkpt>
      <trkpt lat="45.38691" lon="3.75795">
        <ele>670.09997558594</ele>
        <time>2012-09-03T16:58:33Z</time>
      </trkpt>
      <trkpt lat="45.38688" lon="3.7579">
        <ele>670.20001220703</ele>
        <time>2012-09-03T16:58:37Z</time>
      </trkpt>
      <trkpt lat="45.38684" lon="3.75785">
        <ele>667.70001220703</ele>
        <time>2012-09-03T16:58:45Z</time>
      </trkpt>
      <trkpt lat="45.38679" lon="3.75779">
        <ele>667.29998779297</ele>
        <time>2012-09-03T16:58:49Z</time>
      </trkpt>
      <trkpt lat="45.38675" lon="3.75774">
        <ele>667</ele>
        <time>2012-09-03T16:58:53Z</time>
      </trkpt>
      <trkpt lat="45.38671" lon="3.7577">
        <ele>667.59997558594</ele>
        <time>2012-09-03T16:58:55Z</time>
      </trkpt>
      <trkpt lat="45.38667" lon="3.75763">
        <ele>669.40002441406</ele>
        <time>2012-09-03T16:58:58Z</time>
      </trkpt>
      <trkpt lat="45.38663" lon="3.75757">
        <ele>668.29998779297</ele>
        <time>2012-09-03T16:59:00Z</time>
      </trkpt>
      <trkpt lat="45.38659" lon="3.75752">
        <ele>669.20001220703</ele>
        <time>2012-09-03T16:59:01Z</time>
      </trkpt>
      <trkpt lat="45.38654" lon="3.75747">
        <ele>668.79998779297</ele>
        <time>2012-09-03T16:59:04Z</time>
      </trkpt>
      <trkpt lat="45.38651" lon="3.75742">
        <ele>670</ele>
        <time>2012-09-03T16:59:06Z</time>
      </trkpt>
      <trkpt lat="45.38647" lon="3.75739">
        <ele>669.59997558594</ele>
        <time>2012-09-03T16:59:08Z</time>
      </trkpt>
      <trkpt lat="45.38643" lon="3.75734">
        <ele>668.29998779297</ele>
        <time>2012-09-03T16:59:13Z</time>
      </trkpt>
      <trkpt lat="45.38622" lon="3.75707">
        <ele>673.40002441406</ele>
        <time>2012-09-03T16:59:22Z</time>
      </trkpt>
      <trkpt lat="45.38616" lon="3.75697">
        <ele>676.29998779297</ele>
        <time>2012-09-03T16:59:26Z</time>
      </trkpt>
      <trkpt lat="45.38603" lon="3.75687">
        <ele>678.5</ele>
        <time>2012-09-03T16:59:33Z</time>
      </trkpt>
      <trkpt lat="45.386" lon="3.7568">
        <ele>677.59997558594</ele>
        <time>2012-09-03T16:59:34Z</time>
      </trkpt>
      <trkpt lat="45.38597" lon="3.75675">
        <ele>677.59997558594</ele>
        <time>2012-09-03T16:59:37Z</time>
      </trkpt>
      <trkpt lat="45.38586" lon="3.75668">
        <ele>681.29998779297</ele>
        <time>2012-09-03T16:59:40Z</time>
      </trkpt>
      <trkpt lat="45.38581" lon="3.75666">
        <ele>681.40002441406</ele>
        <time>2012-09-03T16:59:44Z</time>
      </trkpt>
      <trkpt lat="45.38575" lon="3.75663">
        <ele>682.09997558594</ele>
        <time>2012-09-03T16:59:46Z</time>
      </trkpt>
      <trkpt lat="45.38572" lon="3.75652">
        <ele>683.59997558594</ele>
        <time>2012-09-03T16:59:47Z</time>
      </trkpt>
      <trkpt lat="45.38565" lon="3.7565">
        <ele>684.20001220703</ele>
        <time>2012-09-03T16:59:50Z</time>
      </trkpt>
      <trkpt lat="45.38563" lon="3.75643">
        <ele>684.29998779297</ele>
        <time>2012-09-03T16:59:53Z</time>
      </trkpt>
      <trkpt lat="45.38558" lon="3.75648">
        <ele>682.29998779297</ele>
        <time>2012-09-03T16:59:57Z</time>
      </trkpt>
      <trkpt lat="45.38553" lon="3.7565">
        <ele>681.09997558594</ele>
        <time>2012-09-03T17:00:01Z</time>
      </trkpt>
      <trkpt lat="45.38554" lon="3.75657">
        <ele>675.09997558594</ele>
        <time>2012-09-03T17:00:02Z</time>
      </trkpt>
      <trkpt lat="45.38548" lon="3.75656">
        <ele>678.40002441406</ele>
        <time>2012-09-03T17:00:08Z</time>
      </trkpt>
      <trkpt lat="45.38548" lon="3.75663">
        <ele>670.40002441406</ele>
        <time>2012-09-03T17:00:10Z</time>
      </trkpt>
      <trkpt lat="45.38534" lon="3.75665">
        <ele>664.79998779297</ele>
        <time>2012-09-03T17:00:20Z</time>
      </trkpt>
      <trkpt lat="45.38528" lon="3.75665">
        <ele>654.79998779297</ele>
        <time>2012-09-03T17:00:28Z</time>
      </trkpt>
      <trkpt lat="45.38522" lon="3.75662">
        <ele>657.29998779297</ele>
        <time>2012-09-03T17:00:38Z</time>
      </trkpt>
      <trkpt lat="45.38516" lon="3.75645">
        <ele>661.09997558594</ele>
        <time>2012-09-03T17:00:41Z</time>
      </trkpt>
      <trkpt lat="45.38512" lon="3.75642">
        <ele>662.79998779297</ele>
        <time>2012-09-03T17:00:43Z</time>
      </trkpt>
      <trkpt lat="45.38509" lon="3.75633">
        <ele>661.5</ele>
        <time>2012-09-03T17:00:58Z</time>
      </trkpt>
      <trkpt lat="45.38509" lon="3.75625">
        <ele>660.40002441406</ele>
        <time>2012-09-03T17:01:05Z</time>
      </trkpt>
      <trkpt lat="45.38509" lon="3.75618">
        <ele>660.09997558594</ele>
        <time>2012-09-03T17:01:07Z</time>
      </trkpt>
      <trkpt lat="45.38508" lon="3.75611">
        <ele>660.59997558594</ele>
        <time>2012-09-03T17:01:12Z</time>
      </trkpt>
      <trkpt lat="45.38508" lon="3.75604">
        <ele>660.70001220703</ele>
        <time>2012-09-03T17:01:15Z</time>
      </trkpt>
      <trkpt lat="45.38506" lon="3.75597">
        <ele>661.59997558594</ele>
        <time>2012-09-03T17:01:20Z</time>
      </trkpt>
      <trkpt lat="45.38505" lon="3.75589">
        <ele>658.90002441406</ele>
        <time>2012-09-03T17:01:28Z</time>
      </trkpt>
      <trkpt lat="45.38504" lon="3.75582">
        <ele>659.09997558594</ele>
        <time>2012-09-03T17:01:31Z</time>
      </trkpt>
      <trkpt lat="45.38502" lon="3.75571">
        <ele>660.5</ele>
        <time>2012-09-03T17:01:38Z</time>
      </trkpt>
      <trkpt lat="45.38504" lon="3.75563">
        <ele>663.59997558594</ele>
        <time>2012-09-03T17:01:41Z</time>
      </trkpt>
      <trkpt lat="45.38503" lon="3.75555">
        <ele>664.20001220703</ele>
        <time>2012-09-03T17:01:45Z</time>
      </trkpt>
      <trkpt lat="45.38501" lon="3.75547">
        <ele>663.5</ele>
        <time>2012-09-03T17:01:50Z</time>
      </trkpt>
      <trkpt lat="45.385" lon="3.7554">
        <ele>663.59997558594</ele>
        <time>2012-09-03T17:01:54Z</time>
      </trkpt>
      <trkpt lat="45.38498" lon="3.75534">
        <ele>659.5</ele>
        <time>2012-09-03T17:02:00Z</time>
      </trkpt>
      <trkpt lat="45.38496" lon="3.75528">
        <ele>661</ele>
        <time>2012-09-03T17:02:04Z</time>
      </trkpt>
      <trkpt lat="45.38495" lon="3.75522">
        <ele>661.09997558594</ele>
        <time>2012-09-03T17:02:08Z</time>
      </trkpt>
      <trkpt lat="45.38492" lon="3.75515">
        <ele>660.20001220703</ele>
        <time>2012-09-03T17:02:12Z</time>
      </trkpt>
      <trkpt lat="45.3849" lon="3.75508">
        <ele>660.40002441406</ele>
        <time>2012-09-03T17:02:18Z</time>
      </trkpt>
      <trkpt lat="45.38488" lon="3.75501">
        <ele>661.59997558594</ele>
        <time>2012-09-03T17:02:22Z</time>
      </trkpt>
      <trkpt lat="45.38485" lon="3.75495">
        <ele>660.70001220703</ele>
        <time>2012-09-03T17:02:27Z</time>
      </trkpt>
      <trkpt lat="45.38483" lon="3.75489">
        <ele>660.59997558594</ele>
        <time>2012-09-03T17:02:34Z</time>
      </trkpt>
      <trkpt lat="45.38479" lon="3.75485">
        <ele>659.59997558594</ele>
        <time>2012-09-03T17:02:37Z</time>
      </trkpt>
      <trkpt lat="45.38478" lon="3.75476">
        <ele>659.20001220703</ele>
        <time>2012-09-03T17:02:42Z</time>
      </trkpt>
      <trkpt lat="45.38477" lon="3.7547">
        <ele>662.90002441406</ele>
        <time>2012-09-03T17:02:45Z</time>
      </trkpt>
      <trkpt lat="45.38475" lon="3.75463">
        <ele>662.59997558594</ele>
        <time>2012-09-03T17:02:50Z</time>
      </trkpt>
      <trkpt lat="45.38473" lon="3.75456">
        <ele>664.70001220703</ele>
        <time>2012-09-03T17:02:55Z</time>
      </trkpt>
      <trkpt lat="45.38471" lon="3.75449">
        <ele>663.90002441406</ele>
        <time>2012-09-03T17:02:59Z</time>
      </trkpt>
      <trkpt lat="45.38469" lon="3.75442">
        <ele>664.5</ele>
        <time>2012-09-03T17:03:03Z</time>
      </trkpt>
      <trkpt lat="45.38467" lon="3.75436">
        <ele>666.29998779297</ele>
        <time>2012-09-03T17:03:08Z</time>
      </trkpt>
      <trkpt lat="45.38465" lon="3.7543">
        <ele>666.79998779297</ele>
        <time>2012-09-03T17:03:12Z</time>
      </trkpt>
      <trkpt lat="45.38463" lon="3.75421">
        <ele>666.59997558594</ele>
        <time>2012-09-03T17:03:17Z</time>
      </trkpt>
      <trkpt lat="45.3846" lon="3.75413">
        <ele>665.90002441406</ele>
        <time>2012-09-03T17:03:22Z</time>
      </trkpt>
      <trkpt lat="45.38458" lon="3.75407">
        <ele>666.40002441406</ele>
        <time>2012-09-03T17:03:27Z</time>
      </trkpt>
      <trkpt lat="45.38457" lon="3.75399">
        <ele>666.90002441406</ele>
        <time>2012-09-03T17:03:31Z</time>
      </trkpt>
      <trkpt lat="45.38456" lon="3.75393">
        <ele>668.40002441406</ele>
        <time>2012-09-03T17:03:35Z</time>
      </trkpt>
      <trkpt lat="45.38453" lon="3.75386">
        <ele>668.29998779297</ele>
        <time>2012-09-03T17:03:39Z</time>
      </trkpt>
      <trkpt lat="45.3845" lon="3.75379">
        <ele>669.20001220703</ele>
        <time>2012-09-03T17:03:43Z</time>
      </trkpt>
      <trkpt lat="45.38448" lon="3.75373">
        <ele>668.90002441406</ele>
        <time>2012-09-03T17:03:47Z</time>
      </trkpt>
      <trkpt lat="45.38446" lon="3.75366">
        <ele>667.70001220703</ele>
        <time>2012-09-03T17:03:51Z</time>
      </trkpt>
      <trkpt lat="45.38445" lon="3.75359">
        <ele>668.20001220703</ele>
        <time>2012-09-03T17:03:54Z</time>
      </trkpt>
      <trkpt lat="45.38444" lon="3.75352">
        <ele>669.29998779297</ele>
        <time>2012-09-03T17:03:57Z</time>
      </trkpt>
      <trkpt lat="45.38442" lon="3.75343">
        <ele>670.5</ele>
        <time>2012-09-03T17:04:00Z</time>
      </trkpt>
      <trkpt lat="45.38436" lon="3.75328">
        <ele>672.79998779297</ele>
        <time>2012-09-03T17:04:05Z</time>
      </trkpt>
      <trkpt lat="45.38433" lon="3.75321">
        <ele>674.09997558594</ele>
        <time>2012-09-03T17:04:08Z</time>
      </trkpt>
      <trkpt lat="45.3843" lon="3.75314">
        <ele>674</ele>
        <time>2012-09-03T17:04:11Z</time>
      </trkpt>
      <trkpt lat="45.38429" lon="3.75307">
        <ele>672.5</ele>
        <time>2012-09-03T17:04:14Z</time>
      </trkpt>
      <trkpt lat="45.38428" lon="3.753">
        <ele>671.40002441406</ele>
        <time>2012-09-03T17:04:17Z</time>
      </trkpt>
      <trkpt lat="45.38426" lon="3.75291">
        <ele>672.29998779297</ele>
        <time>2012-09-03T17:04:20Z</time>
      </trkpt>
      <trkpt lat="45.38423" lon="3.75285">
        <ele>674.59997558594</ele>
        <time>2012-09-03T17:04:22Z</time>
      </trkpt>
      <trkpt lat="45.38423" lon="3.75278">
        <ele>673.29998779297</ele>
        <time>2012-09-03T17:04:25Z</time>
      </trkpt>
      <trkpt lat="45.38406" lon="3.75245">
        <ele>672.59997558594</ele>
        <time>2012-09-03T17:04:37Z</time>
      </trkpt>
      <trkpt lat="45.38407" lon="3.75234">
        <ele>678.90002441406</ele>
        <time>2012-09-03T17:04:38Z</time>
      </trkpt>
      <trkpt lat="45.38406" lon="3.75226">
        <ele>681.20001220703</ele>
        <time>2012-09-03T17:04:41Z</time>
      </trkpt>
      <trkpt lat="45.38403" lon="3.7522">
        <ele>682.90002441406</ele>
        <time>2012-09-03T17:04:46Z</time>
      </trkpt>
      <trkpt lat="45.38402" lon="3.75214">
        <ele>683.70001220703</ele>
        <time>2012-09-03T17:04:48Z</time>
      </trkpt>
      <trkpt lat="45.38398" lon="3.75208">
        <ele>685.79998779297</ele>
        <time>2012-09-03T17:04:49Z</time>
      </trkpt>
      <trkpt lat="45.38394" lon="3.75204">
        <ele>685.90002441406</ele>
        <time>2012-09-03T17:04:51Z</time>
      </trkpt>
      <trkpt lat="45.384" lon="3.75203">
        <ele>674.20001220703</ele>
        <time>2012-09-03T17:04:56Z</time>
      </trkpt>
      <trkpt lat="45.38404" lon="3.75204">
        <ele>668.53186035156</ele>
        <time>2012-09-03T17:04:56Z</time>
      </trkpt>
      <trkpt lat="45.38401" lon="3.75198">
        <ele>669.29998779297</ele>
        <time>2012-09-03T17:05:01Z</time>
      </trkpt>
      <trkpt lat="45.38398" lon="3.75191">
        <ele>667.09997558594</ele>
        <time>2012-09-03T17:05:06Z</time>
      </trkpt>
      <trkpt lat="45.38396" lon="3.75183">
        <ele>668.70001220703</ele>
        <time>2012-09-03T17:05:10Z</time>
      </trkpt>
      <trkpt lat="45.38391" lon="3.7517">
        <ele>673.20001220703</ele>
        <time>2012-09-03T17:05:17Z</time>
      </trkpt>
      <trkpt lat="45.3839" lon="3.75162">
        <ele>672.59997558594</ele>
        <time>2012-09-03T17:05:27Z</time>
      </trkpt>
      <trkpt lat="45.38387" lon="3.75153">
        <ele>674.5</ele>
        <time>2012-09-03T17:05:32Z</time>
      </trkpt>
      <trkpt lat="45.38379" lon="3.7514">
        <ele>670.90002441406</ele>
        <time>2012-09-03T17:05:39Z</time>
      </trkpt>
      <trkpt lat="45.38375" lon="3.75136">
        <ele>669.5</ele>
        <time>2012-09-03T17:05:45Z</time>
      </trkpt>
    </trkseg>
  </trk>
</gpx>